Overview Statistics Trail Chart Weather Telemetry Raw packets
 

This is the latest recevied weather packets stored in our database for station/object KH6HHG. If no packets are shown the sender has not sent any weather packets the latest 10 day(s).

<< 40 41 42 43 44 45 46 >>
Time Temp. Humidity Pressure Rain* Wind** Luminosity Snow
1777415347 26.11° C 71% 1012.6 hPa 0 mm - - -
1777415047 26.11° C 70% 1012.6 hPa 0 mm - - -
1777414749 26.67° C 69% 1012.6 hPa 0 mm - - -
1777414449 26.67° C 68% 1012.6 hPa 0 mm - - -
1777414149 26.67° C 68% 1012.7 hPa 0 mm - - -
1777413849 26.67° C 68% 1012.8 hPa 0 mm - - -
1777413549 27.22° C 67% 1012.8 hPa 0 mm - - -
1777413249 26.67° C 70% 1012.8 hPa 0 mm - - -
1777412948 26.67° C 70% 1012.9 hPa 0 mm - - -
1777412648 26.67° C 68% 1012.9 hPa 0 mm - - -
1777412348 26.67° C 69% 1012.9 hPa 0 mm - - -
1777412048 26.11° C 71% 1013 hPa 0 mm - - -
1777411748 26.11° C 70% 1013.1 hPa 0 mm - - -
1777411448 26.11° C 69% 1013.1 hPa 0 mm - - -
1777411148 26.11° C 70% 1013.2 hPa 0 mm - - -
1777410848 26.11° C 69% 1013.1 hPa 0 mm - - -
1777410548 25.56° C 70% 1013.1 hPa 0 mm - - -
1777410248 26.11° C 69% 1013.1 hPa 0 mm - - -
1777409948 26.11° C 70% 1013.3 hPa 0 mm - - -
1777409648 26.11° C 70% 1013.3 hPa 0 mm - - -
1777409348 26.11° C 71% 1013.4 hPa 0 mm - - -
1777409048 25.56° C 71% 1013.4 hPa 0 mm - - -
1777408748 25.56° C 70% 1013.4 hPa 0 mm - - -
1777408448 25.56° C 70% 1013.4 hPa 0 mm - - -
1777408148 25.56° C 72% 1013.4 hPa 0 mm - - -

* Rain latest hour (hover to see other rain measurements)
** Current wind speed in m/s (hover to see current wind gust speed)